Terminal Aerodrome Forecast
Issued by NWS

Home | Current Version | Previous Version | Text Only | Print | Product List | Glossary On
Versions: 1 2 3 4 5 6 7 8 9 10 11 12 13
993
FTUS44 KSJT 272320
TAFSOA
TAF
KSOA 272320Z 2800/2824 12004KT P6SM SKC
     FM280600 14007KT P6SM OVC015
     FM280900 15009KT P6SM OVC008
     FM281500 15012KT P6SM OVC012
     FM281800 18013G20KT P6SM BKN020
     FM282100 18013G21KT P6SM SCT030 BKN040=

USA.gov is the U.S. government's official web portal to all federal, state and local government web resources and services.